Time;durP1;ratioP1;P1;durP2;ratioP2;P2;SDS_P1;SDS_P2;PMS_P1;PMS_P2;Temp;Humidity;BMP_temperature;BMP_pressure;BME280_temperature;BME280_humidity;BME280_pressure;Samples;Min_cycle;Max_cycle;Signal;HPM_P1;HPM_P2
2021/12/29 00:00:55;;;;;;;15.70;15.20;;;22.80;66.10;;;;;;4980225;28;20458;-51
2021/12/29 00:03:22;;;;;;;15.27;14.80;;;22.70;66.50;;;;;;4980499;28;20880;-55
2021/12/29 00:05:48;;;;;;;15.20;14.70;;;22.60;67.50;;;;;;4980762;28;20470;-57
2021/12/29 00:08:15;;;;;;;15.43;15.00;;;22.60;68.40;;;;;;4980400;28;20475;-57
2021/12/29 00:10:42;;;;;;;15.70;15.20;;;22.60;68.70;;;;;;4980278;28;21110;-56
2021/12/29 00:13:10;;;;;;;16.37;15.77;;;22.50;69.20;;;;;;4980251;28;20447;-55
2021/12/29 00:15:37;;;;;;;15.67;15.17;;;22.50;69.30;;;;;;4980648;28;20454;-56
2021/12/29 00:18:04;;;;;;;15.20;14.70;;;22.50;69.90;;;;;;4980088;28;20561;-57
2021/12/29 00:20:32;;;;;;;15.70;15.20;;;22.50;70.20;;;;;;4980367;28;20453;-52
2021/12/29 00:23:00;;;;;;;14.60;14.20;;;22.40;70.40;;;;;;4978937;28;20452;-56
2021/12/29 00:25:27;;;;;;;15.50;15.07;;;22.40;71.10;;;;;;4980551;28;20218;-57
2021/12/29 00:27:54;;;;;;;14.13;13.63;;;22.50;71.30;;;;;;4982141;28;20448;-55
2021/12/29 00:30:24;;;;;;;15.53;15.03;;;22.50;71.10;;;;;;4983829;28;20303;-51
2021/12/29 00:32:50;;;;;;;15.27;14.83;;;22.50;70.90;;;;;;4983381;28;20454;-56
2021/12/29 00:35:18;;;;;;;15.90;15.03;;;22.50;71.30;;;;;;4983234;28;20450;-49
2021/12/29 00:37:45;;;;;;;16.07;15.57;;;22.40;71.60;;;;;;4983122;28;20490;-49
2021/12/29 00:40:13;;;;;;;15.23;14.83;;;22.40;72.00;;;;;;4983261;28;20840;-52
2021/12/29 00:42:40;;;;;;;15.73;15.20;;;22.30;72.70;;;;;;4983595;28;20450;-55
2021/12/29 00:45:09;;;;;;;15.83;15.33;;;22.30;73.50;;;;;;4985269;28;20461;-49
2021/12/29 00:47:38;;;;;;;15.63;15.13;;;22.20;74.50;;;;;;4984837;28;20450;-55
2021/12/29 00:50:07;;;;;;;15.80;15.30;;;22.10;74.90;;;;;;4984862;28;20465;-50
2021/12/29 00:52:34;;;;;;;15.57;15.07;;;22.10;75.70;;;;;;4983334;28;21282;-50
2021/12/29 00:55:01;;;;;;;15.77;15.27;;;22.10;76.60;;;;;;4983540;28;20443;-48
2021/12/29 00:57:27;;;;;;;16.00;15.50;;;22.10;76.70;;;;;;4983541;28;21115;-55
2021/12/29 00:59:54;;;;;;;15.87;15.37;;;22.00;77.00;;;;;;4984565;28;20819;-61
2021/12/29 01:02:21;;;;;;;15.40;14.90;;;22.00;77.40;;;;;;4983438;28;20972;-57
2021/12/29 01:04:49;;;;;;;15.23;14.83;;;22.00;77.30;;;;;;4983455;28;20521;-62
2021/12/29 01:07:16;;;;;;;15.80;15.30;;;22.00;77.20;;;;;;4983858;28;20451;-59
2021/12/29 01:09:44;;;;;;;15.90;15.40;;;22.00;77.60;;;;;;4982909;28;20846;-59
2021/12/29 01:12:12;;;;;;;15.50;15.00;;;22.00;78.10;;;;;;4982892;28;20480;-55
2021/12/29 01:14:43;;;;;;;15.50;15.00;;;22.00;78.10;;;;;;4983403;28;20458;-56
2021/12/29 01:17:09;;;;;;;15.97;15.47;;;21.90;78.10;;;;;;4985076;28;20820;-56
2021/12/29 01:19:36;;;;;;;16.00;15.50;;;21.90;78.00;;;;;;4983060;28;20474;-57
2021/12/29 01:22:05;;;;;;;16.70;16.00;;;21.90;78.40;;;;;;4983545;28;20451;-56
2021/12/29 01:24:32;;;;;;;15.60;15.10;;;21.90;79.10;;;;;;4983001;28;20454;-55
2021/12/29 01:26:59;;;;;;;15.50;15.00;;;21.90;79.20;;;;;;4982798;28;20463;-58
2021/12/29 01:29:28;;;;;;;16.10;15.60;;;21.90;79.00;;;;;;4982608;28;20474;-59
2021/12/29 01:31:55;;;;;;;15.30;14.80;;;21.80;79.00;;;;;;4982499;28;20840;-58
2021/12/29 01:34:22;;;;;;;16.00;15.50;;;21.90;79.30;;;;;;4983009;28;20451;-63
2021/12/29 01:36:50;;;;;;;15.43;14.93;;;21.80;80.00;;;;;;4983023;28;20451;-61
2021/12/29 01:39:19;;;;;;;15.60;15.10;;;21.70;80.70;;;;;;4991694;28;20475;-59
2021/12/29 01:41:47;;;;;;;16.00;15.40;;;21.70;81.30;;;;;;4995485;28;20447;-56
2021/12/29 01:44:16;;;;;;;15.93;15.43;;;21.70;81.30;;;;;;4995232;28;20454;-54
2021/12/29 01:46:45;;;;;;;15.13;14.70;;;21.70;81.80;;;;;;4995452;28;20458;-55
2021/12/29 01:49:12;;;;;;;16.83;16.30;;;21.70;82.20;;;;;;4994566;28;20463;-57
2021/12/29 01:51:48;;;;;;;15.30;14.80;;;21.60;82.90;;;;;;4994473;28;20527;-55
2021/12/29 01:54:23;;;;;;;15.40;14.90;;;21.60;84.10;;;;;;4994586;28;20453;-60
2021/12/29 01:56:53;;;;;;;15.50;15.10;;;21.60;85.70;;;;;;4994175;28;20454;-56
2021/12/29 01:59:21;;;;;;;15.23;14.77;;;21.60;85.20;;;;;;4993742;28;20478;-55
2021/12/29 02:01:48;;;;;;;15.60;15.10;;;21.60;86.00;;;;;;4993773;28;20825;-57
2021/12/29 02:04:15;;;;;;;15.23;14.80;;;21.60;85.90;;;;;;4993388;28;20447;-57
2021/12/29 02:06:43;;;;;;;15.53;15.03;;;21.60;84.60;;;;;;4993393;28;20824;-56
2021/12/29 02:09:11;;;;;;;15.63;15.03;;;21.50;84.30;;;;;;4993466;28;20471;-52
2021/12/29 02:11:38;;;;;;;15.20;14.70;;;21.50;83.70;;;;;;4993185;28;20461;-55
2021/12/29 02:14:09;;;;;;;15.80;15.30;;;21.40;83.30;;;;;;4993298;28;20451;-55
2021/12/29 02:16:36;;;;;;;15.17;14.70;;;21.40;83.20;;;;;;4993205;28;20453;-56
2021/12/29 02:19:07;;;;;;;16.30;15.70;;;21.40;83.10;;;;;;4992978;28;20487;-55
2021/12/29 02:21:36;;;;;;;15.57;15.00;;;21.30;83.00;;;;;;4992982;28;20887;-55
2021/12/29 02:24:18;;;;;;;15.83;15.33;;;21.30;83.20;;;;;;4993202;28;20457;-53
2021/12/29 02:26:47;;;;;;;15.70;15.10;;;21.20;82.90;;;;;;4993146;28;20531;-56
2021/12/29 02:29:17;;;;;;;16.33;15.83;;;21.20;83.20;;;;;;4992759;28;20475;-54
2021/12/29 02:31:44;;;;;;;16.23;15.50;;;21.10;83.20;;;;;;4993088;28;20455;-54
2021/12/29 02:34:13;;;;;;;15.63;15.13;;;21.10;83.20;;;;;;4992997;28;20470;-53
2021/12/29 02:36:44;;;;;;;15.53;15.03;;;21.10;83.40;;;;;;4992933;28;20447;-51
2021/12/29 02:39:13;;;;;;;15.60;15.10;;;21.00;83.30;;;;;;4992794;28;20487;-54
2021/12/29 02:41:43;;;;;;;15.33;14.83;;;21.00;83.20;;;;;;4992432;28;20455;-54
2021/12/29 02:44:16;;;;;;;15.60;15.10;;;21.00;83.30;;;;;;4992722;28;20451;-57
2021/12/29 02:46:43;;;;;;;15.40;14.90;;;20.90;83.30;;;;;;4998326;28;20462;-58
2021/12/29 02:49:09;;;;;;;15.93;15.43;;;20.90;83.50;;;;;;4992535;28;20865;-58
2021/12/29 02:51:36;;;;;;;15.70;15.20;;;20.90;83.60;;;;;;4992488;28;20443;-57
2021/12/29 02:54:05;;;;;;;15.90;15.40;;;20.90;83.50;;;;;;4992354;28;20526;-56
2021/12/29 02:56:32;;;;;;;16.43;15.93;;;20.80;83.40;;;;;;4992652;28;20462;-54
2021/12/29 02:58:59;;;;;;;15.70;15.20;;;20.80;83.40;;;;;;4992449;28;20494;-55
2021/12/29 03:01:27;;;;;;;15.37;14.87;;;20.80;83.60;;;;;;4992493;28;20443;-57
2021/12/29 03:03:56;;;;;;;16.27;15.67;;;20.70;83.50;;;;;;4992500;28;20454;-53
2021/12/29 03:06:24;;;;;;;15.60;15.00;;;20.70;83.70;;;;;;4992226;28;20451;-57
2021/12/29 03:08:51;;;;;;;15.67;15.17;;;20.70;83.80;;;;;;4992364;28;21018;-53
2021/12/29 03:11:19;;;;;;;15.97;15.47;;;20.70;84.10;;;;;;4992362;28;20455;-53
2021/12/29 03:13:46;;;;;;;15.60;15.10;;;20.60;83.90;;;;;;4992354;28;20558;-56
2021/12/29 03:16:13;;;;;;;15.57;15.07;;;20.60;84.20;;;;;;4992383;28;20478;-52
2021/12/29 03:18:41;;;;;;;15.90;15.37;;;20.60;84.50;;;;;;4992061;28;20483;-55
2021/12/29 03:21:08;;;;;;;15.10;14.60;;;20.60;84.70;;;;;;4992373;28;20542;-55
2021/12/29 03:23:35;;;;;;;15.63;15.03;;;20.50;84.90;;;;;;4992153;28;20950;-55
2021/12/29 03:26:03;;;;;;;16.00;15.40;;;20.40;84.70;;;;;;4992374;28;20453;-52
2021/12/29 03:28:31;;;;;;;15.60;15.10;;;20.40;85.10;;;;;;4992422;28;20463;-53
2021/12/29 03:30:57;;;;;;;15.73;15.23;;;20.40;85.50;;;;;;4992137;28;20459;-54
2021/12/29 03:33:28;;;;;;;16.00;15.50;;;20.30;85.80;;;;;;4992192;28;20884;-57
2021/12/29 03:35:57;;;;;;;15.90;15.30;;;20.30;85.90;;;;;;4992123;28;20450;-51
2021/12/29 03:38:26;;;;;;;15.30;14.90;;;20.30;86.20;;;;;;4992221;28;20486;-54
2021/12/29 03:40:55;;;;;;;15.60;15.10;;;20.40;86.10;;;;;;4992521;28;20816;-52
2021/12/29 03:43:22;;;;;;;15.70;15.20;;;20.20;85.70;;;;;;4992009;28;20457;-55
2021/12/29 03:45:52;;;;;;;15.87;15.37;;;20.20;85.90;;;;;;4992134;28;20447;-52
2021/12/29 03:48:20;;;;;;;16.00;15.50;;;20.20;86.00;;;;;;4992118;28;21027;-56
2021/12/29 03:50:48;;;;;;;15.50;15.00;;;20.20;86.20;;;;;;4992333;28;20439;-53
2021/12/29 03:53:16;;;;;;;16.50;15.90;;;20.20;86.20;;;;;;4991725;28;20541;-57
2021/12/29 03:55:42;;;;;;;15.77;15.27;;;20.20;86.40;;;;;;4992325;28;20450;-55
2021/12/29 03:58:09;;;;;;;16.60;16.10;;;20.10;86.80;;;;;;4991981;28;20497;-54
2021/12/29 04:00:36;;;;;;;16.47;15.90;;;20.10;86.60;;;;;;4992323;28;20851;-53
2021/12/29 04:03:05;;;;;;;16.20;15.70;;;20.10;86.70;;;;;;4995368;28;20450;-54
2021/12/29 04:05:33;;;;;;;15.73;15.23;;;20.10;87.00;;;;;;4995510;28;20454;-51
2021/12/29 04:08:01;;;;;;;15.80;15.30;;;20.10;87.20;;;;;;4995701;28;20482;-52
2021/12/29 04:10:28;;;;;;;15.63;15.13;;;20.10;87.40;;;;;;4995679;28;20549;-53
2021/12/29 04:12:55;;;;;;;15.57;15.07;;;20.10;87.60;;;;;;4995627;28;20451;-53
2021/12/29 04:15:24;;;;;;;15.93;15.43;;;20.10;87.70;;;;;;4995835;28;20453;-54
2021/12/29 04:17:57;;;;;;;16.07;15.57;;;20.10;88.20;;;;;;4995281;28;20490;-55
2021/12/29 04:23:13;;;;;;;15.67;15.17;;;20.00;88.80;;;;;;4995537;28;20551;-55
2021/12/29 04:25:40;;;;;;;15.13;14.73;;;20.00;89.40;;;;;;4995764;28;20446;-55
2021/12/29 04:28:14;;;;;;;15.70;15.20;;;20.00;89.40;;;;;;4995510;28;20840;-55
2021/12/29 04:30:42;;;;;;;15.70;15.20;;;20.00;89.80;;;;;;4995291;28;21166;-56
2021/12/29 04:33:08;;;;;;;15.40;14.90;;;20.00;89.70;;;;;;4995174;28;20942;-53
2021/12/29 04:35:36;;;;;;;16.00;15.40;;;20.00;89.80;;;;;;4995401;28;20451;-54
2021/12/29 04:38:03;;;;;;;16.23;15.73;;;20.00;89.70;;;;;;4995100;28;20483;-53
2021/12/29 04:40:30;;;;;;;15.97;15.47;;;19.90;90.20;;;;;;4995014;28;20937;-55
2021/12/29 04:42:57;;;;;;;15.30;14.80;;;19.90;90.30;;;;;;4994983;28;20534;-52
2021/12/29 04:45:24;;;;;;;15.90;15.30;;;20.00;90.60;;;;;;4995166;28;20635;-52
2021/12/29 04:47:50;;;;;;;14.50;14.10;;;19.90;90.70;;;;;;4995087;28;20471;-55
2021/12/29 04:50:25;;;;;;;15.27;14.77;;;19.80;90.90;;;;;;4995045;28;20449;-52
2021/12/29 04:52:54;;;;;;;15.17;14.70;;;19.90;91.30;;;;;;4994730;28;20582;-57
2021/12/29 04:55:21;;;;;;;15.10;14.60;;;19.90;91.10;;;;;;4995074;28;20956;-56
2021/12/29 04:57:48;;;;;;;15.10;14.70;;;19.90;91.30;;;;;;4994964;28;20457;-54
2021/12/29 05:00:16;;;;;;;16.77;16.17;;;19.90;91.60;;;;;;4994989;28;20442;-51
2021/12/29 05:02:43;;;;;;;15.70;15.20;;;19.80;91.60;;;;;;4994610;28;20439;-55
2021/12/29 05:05:21;;;;;;;15.87;15.37;;;19.90;91.40;;;;;;4999686;28;20443;-59
2021/12/29 05:10:36;;;;;;;15.90;15.40;;;19.80;92.30;;;;;;4994949;28;20454;-55
2021/12/29 05:13:03;;;;;;;15.87;15.37;;;19.80;92.30;;;;;;4993364;28;20439;-56
2021/12/29 05:15:30;;;;;;;15.80;15.30;;;19.80;92.50;;;;;;4994796;28;20453;-50
2021/12/29 05:17:58;;;;;;;15.50;15.00;;;19.80;92.60;;;;;;4994088;28;20473;-54
2021/12/29 05:20:26;;;;;;;15.90;15.40;;;19.80;93.00;;;;;;4994456;28;20527;-55
2021/12/29 05:22:53;;;;;;;15.70;15.20;;;19.80;93.00;;;;;;4994311;28;20442;-57
2021/12/29 05:25:19;;;;;;;16.23;15.73;;;19.70;93.40;;;;;;4994615;28;20790;-52
2021/12/29 05:27:48;;;;;;;16.50;15.87;;;19.80;93.60;;;;;;4994505;28;20443;-54
2021/12/29 05:30:14;;;;;;;16.77;16.17;;;19.80;93.40;;;;;;4994322;28;20447;-52
2021/12/29 05:32:41;;;;;;;16.07;15.50;;;19.70;93.80;;;;;;4994174;28;20451;-56
2021/12/29 05:35:09;;;;;;;16.10;15.57;;;19.80;94.30;;;;;;4994434;28;20438;-51
2021/12/29 05:37:35;;;;;;;16.20;15.70;;;19.80;94.40;;;;;;4994039;28;20454;-55
2021/12/29 05:40:03;;;;;;;16.20;15.70;;;19.80;94.40;;;;;;4994185;28;20510;-54
2021/12/29 05:42:30;;;;;;;15.70;15.20;;;19.90;94.10;;;;;;4993564;28;20456;-54
2021/12/29 05:44:58;;;;;;;16.20;15.70;;;19.80;94.20;;;;;;4994006;28;20443;-55
2021/12/29 05:47:25;;;;;;;15.80;15.30;;;19.80;94.80;;;;;;4993926;28;20443;-52
2021/12/29 05:49:51;;;;;;;15.90;15.40;;;19.80;94.80;;;;;;4993890;28;20475;-56
2021/12/29 05:52:18;;;;;;;15.57;15.07;;;19.70;95.20;;;;;;4993650;28;20454;-55
2021/12/29 05:54:44;;;;;;;16.30;15.70;;;19.70;94.90;;;;;;4993563;28;20463;-55
2021/12/29 05:57:11;;;;;;;15.43;14.93;;;19.70;94.90;;;;;;4993935;28;20465;-56
2021/12/29 05:59:38;;;;;;;15.60;15.10;;;19.70;94.80;;;;;;4993606;28;20497;-56
2021/12/29 06:02:06;;;;;;;16.07;15.57;;;19.70;94.80;;;;;;4993630;28;20454;-52
2021/12/29 06:04:33;;;;;;;16.00;15.50;;;19.70;95.10;;;;;;4993381;28;20525;-50
2021/12/29 06:06:59;;;;;;;15.40;14.90;;;19.70;95.40;;;;;;4993612;28;20741;-52
2021/12/29 06:09:26;;;;;;;16.00;15.50;;;19.70;95.50;;;;;;4993471;28;20490;-55
2021/12/29 06:11:53;;;;;;;15.20;14.70;;;19.70;95.50;;;;;;4993559;28;20466;-53
2021/12/29 06:14:19;;;;;;;16.20;15.40;;;19.80;95.60;;;;;;4993377;28;20439;-56
2021/12/29 06:16:46;;;;;;;15.50;15.00;;;19.80;95.50;;;;;;4993151;28;21003;-53
2021/12/29 06:19:14;;;;;;;15.83;15.33;;;19.80;95.50;;;;;;4993202;28;20490;-55
2021/12/29 06:21:41;;;;;;;15.70;15.20;;;19.70;95.70;;;;;;4992935;28;20451;-54
2021/12/29 06:24:08;;;;;;;16.10;15.60;;;19.70;95.70;;;;;;4993001;28;20449;-53
2021/12/29 06:26:35;;;;;;;15.60;15.10;;;19.70;95.90;;;;;;4993241;28;20819;-53
2021/12/29 06:29:02;;;;;;;15.30;14.80;;;19.70;96.00;;;;;;4992864;28;20478;-55
2021/12/29 06:31:29;;;;;;;15.00;14.60;;;19.80;96.00;;;;;;4993029;28;20454;-55
2021/12/29 06:33:55;;;;;;;15.80;15.30;;;19.70;96.30;;;;;;4993311;28;20442;-55
2021/12/29 06:36:23;;;;;;;15.70;15.20;;;19.80;96.30;;;;;;4993126;28;20451;-53
2021/12/29 06:38:50;;;;;;;15.87;15.37;;;19.70;96.20;;;;;;4993156;28;20486;-55
2021/12/29 06:41:17;;;;;;;15.43;14.93;;;19.70;96.10;;;;;;4992746;28;20460;-55
2021/12/29 06:43:44;;;;;;;15.20;14.80;;;19.80;96.30;;;;;;4992963;28;20455;-53
2021/12/29 06:46:10;;;;;;;16.07;15.47;;;19.80;96.20;;;;;;4992907;28;20450;-52
2021/12/29 06:48:37;;;;;;;15.87;15.27;;;19.70;96.20;;;;;;4992842;28;20467;-55
2021/12/29 06:51:04;;;;;;;15.87;15.27;;;19.70;96.30;;;;;;4992999;28;20461;-54
2021/12/29 06:53:32;;;;;;;15.43;14.93;;;19.70;96.60;;;;;;4992345;28;20466;-56
2021/12/29 06:56:00;;;;;;;15.90;15.40;;;19.70;96.80;;;;;;4992750;28;20459;-53
2021/12/29 06:58:27;;;;;;;15.70;15.20;;;19.70;96.70;;;;;;4992657;28;20466;-53
2021/12/29 07:00:54;;;;;;;16.30;15.70;;;19.70;96.50;;;;;;4992779;28;20534;-58
2021/12/29 07:03:23;;;;;;;15.57;15.07;;;19.80;96.60;;;;;;4992505;28;20830;-56
2021/12/29 07:05:50;;;;;;;15.90;15.40;;;19.80;96.80;;;;;;4992580;28;20455;-55
2021/12/29 07:08:16;;;;;;;15.83;15.33;;;19.80;96.60;;;;;;4992487;28;20490;-53
2021/12/29 07:10:45;;;;;;;15.60;15.10;;;19.80;96.70;;;;;;4992602;28;20454;-57
2021/12/29 07:13:12;;;;;;;16.10;15.60;;;19.80;96.90;;;;;;4992242;28;20483;-54
2021/12/29 07:15:39;;;;;;;15.60;15.10;;;19.80;96.70;;;;;;4992431;28;20450;-52
2021/12/29 07:18:06;;;;;;;15.70;15.20;;;19.90;96.80;;;;;;4992662;28;20803;-54
2021/12/29 07:20:33;;;;;;;16.10;15.60;;;19.80;96.80;;;;;;4998062;28;20490;-57
2021/12/29 07:23:00;;;;;;;14.30;13.90;;;19.80;96.80;;;;;;4991929;28;20447;-57
2021/12/29 07:25:29;;;;;;;14.47;14.07;;;19.80;96.90;;;;;;4992324;28;20439;-56
2021/12/29 07:27:57;;;;;;;13.80;13.50;;;19.70;96.90;;;;;;4992499;28;20485;-56
2021/12/29 07:30:24;;;;;;;14.57;14.17;;;19.70;97.10;;;;;;4991880;28;20454;-54
2021/12/29 07:32:50;;;;;;;14.07;13.67;;;19.70;97.10;;;;;;4992229;28;20447;-52
2021/12/29 07:35:17;;;;;;;14.83;14.37;;;19.70;97.30;;;;;;4992337;28;20442;-58
2021/12/29 07:37:44;;;;;;;13.77;13.37;;;19.70;97.30;;;;;;4995451;28;20438;-58
2021/12/29 07:40:11;;;;;;;13.93;13.53;;;19.70;97.40;;;;;;4996284;28;20493;-56
2021/12/29 07:42:41;;;;;;;14.67;14.27;;;19.70;97.50;;;;;;4996021;28;20461;-56
2021/12/29 07:45:11;;;;;;;15.00;14.40;;;19.80;97.30;;;;;;4996323;28;20456;-54
2021/12/29 07:47:39;;;;;;;14.27;13.87;;;19.70;97.20;;;;;;4996160;28;20952;-56
2021/12/29 07:50:07;;;;;;;14.77;14.37;;;19.70;97.40;;;;;;4996375;28;20446;-56
2021/12/29 07:52:34;;;;;;;14.50;13.80;;;19.70;97.40;;;;;;4995765;28;20852;-55
2021/12/29 07:55:01;;;;;;;13.90;13.50;;;19.70;97.50;;;;;;4996275;28;20450;-57
2021/12/29 07:57:27;;;;;;;14.87;14.47;;;19.70;97.60;;;;;;4996115;28;20458;-57
2021/12/29 07:59:54;;;;;;;14.67;14.17;;;19.70;97.60;;;;;;4995815;28;20489;-56
2021/12/29 08:02:27;;;;;;;15.20;14.53;;;19.70;97.60;;;;;;4995537;28;20956;-56
2021/12/29 08:04:54;;;;;;;14.40;14.00;;;19.80;97.40;;;;;;4996205;28;20451;-53
2021/12/29 08:07:21;;;;;;;15.03;14.63;;;19.80;97.50;;;;;;4996224;28;20450;-58
2021/12/29 08:09:48;;;;;;;14.20;13.73;;;19.80;97.50;;;;;;4996285;28;20510;-56
2021/12/29 08:12:15;;;;;;;14.40;13.90;;;19.80;97.60;;;;;;4995612;28;20454;-56
2021/12/29 08:14:41;;;;;;;14.50;14.10;;;19.80;97.60;;;;;;4995388;28;20812;-57
2021/12/29 08:17:08;;;;;;;14.67;14.17;;;19.70;97.90;;;;;;4995875;28;20455;-57
2021/12/29 08:19:36;;;;;;;16.43;15.20;;;19.80;99.30;;;;;;4995518;28;20577;-55
2021/12/29 08:22:04;;;;;;;16.83;15.63;;;19.80;99.90;;;;;;4995577;28;20454;-53
2021/12/29 08:24:31;;;;;;;17.77;16.70;;;19.90;99.90;;;;;;4995596;28;20469;-52
2021/12/29 08:26:57;;;;;;;16.63;15.13;;;19.90;99.90;;;;;;4995570;28;20870;-54
2021/12/29 08:29:24;;;;;;;16.70;15.40;;;20.00;99.90;;;;;;4995341;28;20466;-54
2021/12/29 08:31:51;;;;;;;16.07;14.97;;;20.00;99.90;;;;;;4994874;28;20455;-54
2021/12/29 08:34:17;;;;;;;15.47;14.50;;;19.90;99.90;;;;;;4995305;28;20449;-53
2021/12/29 08:36:45;;;;;;;16.13;14.97;;;19.80;99.90;;;;;;4995408;28;20446;-57
2021/12/29 08:39:12;;;;;;;15.00;14.43;;;19.80;99.90;;;;;;4995417;28;20486;-54
2021/12/29 08:41:39;;;;;;;17.00;16.10;;;19.80;99.90;;;;;;4994839;28;20457;-55
2021/12/29 08:44:06;;;;;;;16.37;15.50;;;19.90;99.90;;;;;;4995269;28;20945;-51
2021/12/29 08:46:32;;;;;;;16.60;15.40;;;19.80;99.90;;;;;;4995161;28;20458;-53
2021/12/29 08:48:59;;;;;;;16.30;15.13;;;19.80;99.90;;;;;;4994958;28;20471;-55
2021/12/29 08:51:26;;;;;;;16.77;15.27;;;19.80;99.90;;;;;;4994964;28;20513;-57
2021/12/29 08:53:56;;;;;;;15.70;14.50;;;19.80;99.90;;;;;;4994964;28;20459;-53
2021/12/29 08:56:23;;;;;;;14.60;13.80;;;19.70;99.90;;;;;;4995056;28;20451;-53
2021/12/29 08:58:50;;;;;;;14.90;14.17;;;19.70;99.90;;;;;;4994796;28;20474;-51
2021/12/29 09:01:17;;;;;;;15.90;14.77;;;19.70;99.90;;;;;;4994994;28;20485;-55
2021/12/29 09:03:44;;;;;;;16.27;15.43;;;19.80;99.90;;;;;;4994770;28;20467;-53
2021/12/29 09:06:12;;;;;;;15.30;14.03;;;19.70;99.90;;;;;;4994778;28;20533;-50
2021/12/29 09:08:39;;;;;;;16.23;15.33;;;19.80;99.90;;;;;;4994651;28;20478;-51
2021/12/29 09:11:07;;;;;;;14.17;13.57;;;19.90;99.90;;;;;;4994687;28;20447;-57
2021/12/29 09:13:34;;;;;;;16.30;15.40;;;19.90;99.90;;;;;;4994345;28;20454;-54
2021/12/29 09:16:02;;;;;;;14.50;13.70;;;19.90;99.90;;;;;;4994019;28;20463;-59
2021/12/29 09:18:30;;;;;;;15.13;14.40;;;19.80;99.90;;;;;;4994337;28;20226;-56
2021/12/29 09:21:05;;;;;;;15.47;14.53;;;19.90;99.90;;;;;;4994324;28;20855;-58
2021/12/29 09:23:31;;;;;;;15.70;14.70;;;19.90;99.90;;;;;;4994459;28;20794;-54
2021/12/29 09:25:58;;;;;;;15.87;15.17;;;19.90;99.90;;;;;;4994477;28;20451;-57
2021/12/29 09:28:27;;;;;;;16.70;15.30;;;19.90;99.90;;;;;;4994099;28;20459;-54
2021/12/29 09:30:54;;;;;;;15.17;14.33;;;19.90;99.90;;;;;;4994024;28;20946;-56
2021/12/29 09:33:21;;;;;;;15.67;14.87;;;19.90;99.90;;;;;;5000508;28;20537;-59
2021/12/29 09:35:49;;;;;;;14.90;14.30;;;20.00;99.90;;;;;;4993896;28;20447;-60
2021/12/29 09:38:18;;;;;;;16.17;15.33;;;20.00;99.90;;;;;;4994057;28;20477;-50
2021/12/29 09:40:45;;;;;;;15.57;14.80;;;20.00;99.90;;;;;;4994180;28;20540;-57
2021/12/29 09:43:12;;;;;;;15.20;14.50;;;20.00;99.90;;;;;;4993893;28;20610;-55
2021/12/29 09:45:42;;;;;;;15.13;14.57;;;20.00;99.90;;;;;;4994176;28;20458;-53
2021/12/29 09:48:09;;;;;;;13.48;12.77;;;20.00;99.90;;;;;;4993435;28;20444;-57
2021/12/29 09:50:36;;;;;;;14.70;14.00;;;20.00;99.90;;;;;;4993939;28;20215;-54
2021/12/29 09:53:04;;;;;;;15.63;14.83;;;20.10;99.90;;;;;;4990331;28;20454;-53
2021/12/29 09:55:31;;;;;;;14.90;14.30;;;20.10;99.90;;;;;;4994093;28;20458;-56
2021/12/29 09:57:59;;;;;;;15.47;14.70;;;20.10;99.90;;;;;;4993893;28;20501;-53
2021/12/29 10:00:29;;;;;;;15.00;14.30;;;20.20;99.90;;;;;;4993192;28;20486;-53
2021/12/29 10:03:00;;;;;;;15.10;14.37;;;20.20;99.90;;;;;;4993879;28;20446;-54
2021/12/29 10:05:28;;;;;;;16.30;15.30;;;20.10;99.90;;;;;;4993701;28;20455;-56
2021/12/29 10:08:03;;;;;;;15.50;14.80;;;20.10;99.90;;;;;;4993389;28;20485;-57
2021/12/29 10:10:31;;;;;;;15.60;14.83;;;20.10;99.90;;;;;;4993622;28;20457;-56
2021/12/29 10:12:58;;;;;;;15.80;15.20;;;20.10;99.90;;;;;;4993479;28;20482;-53
2021/12/29 10:15:29;;;;;;;15.10;14.50;;;20.10;99.90;;;;;;4993277;28;20443;-54
2021/12/29 10:18:04;;;;;;;14.43;13.67;;;20.10;99.90;;;;;;4993614;28;20550;-52
2021/12/29 10:20:31;;;;;;;13.77;13.17;;;20.10;99.90;;;;;;4993572;28;21000;-50
2021/12/29 10:22:59;;;;;;;14.23;13.83;;;20.40;99.90;;;;;;4993273;28;20802;-48
2021/12/29 10:25:26;;;;;;;14.90;14.40;;;20.90;99.90;;;;;;4974136;28;20451;-50
2021/12/29 10:27:54;;;;;;;14.37;13.87;;;21.30;99.90;;;;;;4974105;28;20487;-54
2021/12/29 10:30:23;;;;;;;15.40;14.80;;;21.60;99.90;;;;;;4990801;28;20453;-53
2021/12/29 10:32:57;;;;;;;15.30;14.60;;;21.90;99.90;;;;;;4992831;28;20771;-51
2021/12/29 10:35:27;;;;;;;15.53;14.97;;;22.20;99.90;;;;;;4993307;28;20462;-52
2021/12/29 10:37:56;;;;;;;15.60;14.70;;;22.50;99.30;;;;;;4993145;28;20992;-48
2021/12/29 10:40:28;;;;;;;14.10;13.60;;;22.60;98.40;;;;;;4993131;28;20860;-49
2021/12/29 10:42:57;;;;;;;14.00;13.30;;;22.80;97.40;;;;;;4993002;28;20885;-49
2021/12/29 10:45:31;;;;;;;15.17;14.57;;;22.90;96.50;;;;;;4992983;28;20868;-55
2021/12/29 10:47:58;;;;;;;14.80;14.20;;;23.00;95.80;;;;;;4992894;28;20466;-48
2021/12/29 10:50:27;;;;;;;15.50;15.00;;;22.90;95.30;;;;;;4993314;28;20514;-50
2021/12/29 10:52:57;;;;;;;15.53;14.83;;;23.10;94.40;;;;;;4992759;28;20868;-55
2021/12/29 10:55:31;;;;;;;15.50;14.80;;;23.20;94.00;;;;;;4992927;28;20459;-51
2021/12/29 10:58:05;;;;;;;15.00;14.40;;;23.30;93.60;;;;;;4992788;28;20561;-53
2021/12/29 11:00:32;;;;;;;14.67;14.13;;;23.60;92.90;;;;;;4993026;28;20569;-53
2021/12/29 11:03:09;;;;;;;15.27;14.73;;;23.80;92.10;;;;;;4992636;28;21067;-48
2021/12/29 11:05:39;;;;;;;15.27;14.77;;;24.00;90.70;;;;;;4992551;28;20459;-48
2021/12/29 11:08:08;;;;;;;15.40;14.70;;;24.10;90.10;;;;;;4992617;28;20573;-47
2021/12/29 11:10:35;;;;;;;15.10;14.50;;;24.20;89.20;;;;;;4991706;28;20444;-53
2021/12/29 11:13:02;;;;;;;15.33;14.73;;;24.30;87.60;;;;;;4991857;28;21216;-57
2021/12/29 11:15:30;;;;;;;15.70;15.20;;;24.50;85.20;;;;;;4991672;28;20458;-53
2021/12/29 11:18:04;;;;;;;16.20;15.50;;;24.60;83.10;;;;;;4972641;28;20912;-56
2021/12/29 11:20:32;;;;;;;16.00;15.20;;;24.60;81.60;;;;;;4972661;28;20488;-57
2021/12/29 11:23:08;;;;;;;16.00;15.50;;;24.70;80.60;;;;;;4972428;28;20479;-55
2021/12/29 11:25:35;;;;;;;15.30;14.70;;;24.70;79.80;;;;;;4972334;28;20452;-51
2021/12/29 11:28:03;;;;;;;14.90;14.40;;;24.80;79.60;;;;;;4991279;28;20482;-53
2021/12/29 11:30:30;;;;;;;15.20;14.70;;;25.00;78.30;;;;;;4991954;28;20928;-50
2021/12/29 11:33:06;;;;;;;15.57;14.97;;;25.10;76.50;;;;;;4991478;28;20451;-55
2021/12/29 11:35:40;;;;;;;15.63;15.13;;;25.20;74.90;;;;;;4991848;28;20956;-50
2021/12/29 11:38:09;;;;;;;15.70;15.10;;;25.20;74.40;;;;;;4991562;28;20471;-55
2021/12/29 11:40:39;;;;;;;16.03;15.07;;;25.30;73.30;;;;;;4991181;28;20952;-54
2021/12/29 11:43:07;;;;;;;15.70;15.10;;;25.40;72.70;;;;;;4991127;28;20455;-53
2021/12/29 11:45:34;;;;;;;14.45;13.95;;;25.40;72.20;;;;;;4990463;28;20437;-56
2021/12/29 11:48:01;;;;;;;16.87;16.17;;;25.30;72.10;;;;;;4991507;28;20227;-51
2021/12/29 11:50:31;;;;;;;15.10;14.63;;;25.40;70.90;;;;;;4991877;28;20446;-50
2021/12/29 11:53:11;;;;;;;15.33;14.83;;;25.50;70.50;;;;;;4997300;28;20554;-57
2021/12/29 11:55:43;;;;;;;15.97;15.37;;;25.60;70.10;;;;;;4991694;28;20438;-56
2021/12/29 11:58:14;;;;;;;15.20;14.80;;;25.70;69.10;;;;;;4991091;28;20999;-52
2021/12/29 12:00:41;;;;;;;15.53;14.93;;;25.70;67.60;;;;;;4991254;28;21004;-54
2021/12/29 12:03:10;;;;;;;16.53;15.90;;;25.70;67.20;;;;;;4990851;28;20490;-55
2021/12/29 12:05:40;;;;;;;15.80;15.30;;;25.80;66.60;;;;;;4991511;28;20443;-53
2021/12/29 12:08:10;;;;;;;14.90;14.50;;;25.70;66.20;;;;;;4955814;28;1032541;-58
2021/12/29 12:10:39;;;;;;;15.30;14.80;;;25.70;65.90;;;;;;4992322;28;20658;-56
2021/12/29 12:13:21;;;;;;;16.40;15.80;;;25.70;65.80;;;;;;4991463;28;20447;-55
2021/12/29 12:15:47;;;;;;;15.43;14.93;;;25.70;65.70;;;;;;4992164;28;20455;-54
2021/12/29 12:18:14;;;;;;;15.27;14.80;;;25.70;65.60;;;;;;4992128;28;21031;-54
2021/12/29 12:20:44;;;;;;;16.13;15.53;;;25.80;65.70;;;;;;4991862;28;20486;-51
2021/12/29 12:23:22;;;;;;;16.13;15.63;;;26.00;64.80;;;;;;4993818;28;20933;-56
2021/12/29 12:25:49;;;;;;;16.70;16.10;;;26.10;63.60;;;;;;4995492;28;20446;-53
2021/12/29 12:28:17;;;;;;;16.33;15.73;;;26.10;63.70;;;;;;4995584;28;21084;-53
2021/12/29 12:30:49;;;;;;;17.47;16.87;;;26.00;63.70;;;;;;4995127;28;20446;-54
2021/12/29 12:33:20;;;;;;;17.00;16.30;;;26.00;63.70;;;;;;4995082;28;21003;-55
2021/12/29 12:35:49;;;;;;;15.20;14.70;;;25.90;64.10;;;;;;4995483;28;20482;-57